sensor_id;sensor_type;location;lat;lon;timestamp;pressure;altitude;pressure_sealevel;temperature;humidity
70916;BME280;58557;50.982;-3.222;2023-06-14T00:01:59;100892.87;;;24.80;35.33
70916;BME280;58557;50.982;-3.222;2023-06-14T00:04:25;100894.79;;;25.11;35.62
70916;BME280;58557;50.982;-3.222;2023-06-14T00:06:50;100896.26;;;25.33;35.03
70916;BME280;58557;50.982;-3.222;2023-06-14T00:09:16;100895.08;;;25.56;34.89
70916;BME280;58557;50.982;-3.222;2023-06-14T00:11:41;100890.78;;;25.68;34.34
70916;BME280;58557;50.982;-3.222;2023-06-14T00:14:06;100894.52;;;25.71;34.16
70916;BME280;58557;50.982;-3.222;2023-06-14T00:16:31;100895.21;;;25.60;34.19
70916;BME280;58557;50.982;-3.222;2023-06-14T00:18:56;100899.44;;;25.52;33.41
70916;BME280;58557;50.982;-3.222;2023-06-14T00:21:22;100901.80;;;25.26;34.76
70916;BME280;58557;50.982;-3.222;2023-06-14T00:23:47;100902.05;;;25.04;34.57
70916;BME280;58557;50.982;-3.222;2023-06-14T00:26:12;100896.38;;;25.14;34.47
70916;BME280;58557;50.982;-3.222;2023-06-14T00:28:37;100898.28;;;25.16;34.34
70916;BME280;58557;50.982;-3.222;2023-06-14T00:31:03;100903.80;;;24.25;36.25
70916;BME280;58557;50.982;-3.222;2023-06-14T00:33:28;100905.98;;;25.39;33.93
70916;BME280;58557;50.982;-3.222;2023-06-14T00:35:54;100911.21;;;25.00;35.47
70916;BME280;58557;50.982;-3.222;2023-06-14T00:38:20;100911.58;;;24.18;36.05
70916;BME280;58557;50.982;-3.222;2023-06-14T00:40:46;100912.47;;;24.71;35.85
70916;BME280;58557;50.982;-3.222;2023-06-14T00:43:11;100916.27;;;24.62;35.79
70916;BME280;58557;50.982;-3.222;2023-06-14T00:45:36;100916.68;;;24.72;35.49
70916;BME280;58557;50.982;-3.222;2023-06-14T00:48:02;100915.82;;;24.73;35.53
70916;BME280;58557;50.982;-3.222;2023-06-14T00:50:27;100920.77;;;24.41;36.10
70916;BME280;58557;50.982;-3.222;2023-06-14T00:52:53;100923.10;;;23.86;36.50
70916;BME280;58557;50.982;-3.222;2023-06-14T00:55:18;100924.82;;;24.70;35.69
70916;BME280;58557;50.982;-3.222;2023-06-14T00:57:44;100923.10;;;25.41;35.26
70916;BME280;58557;50.982;-3.222;2023-06-14T01:00:10;100924.41;;;25.00;35.75
70916;BME280;58557;50.982;-3.222;2023-06-14T01:02:34;100923.43;;;24.53;36.19
70916;BME280;58557;50.982;-3.222;2023-06-14T01:04:59;100923.85;;;24.22;36.70
70916;BME280;58557;50.982;-3.222;2023-06-14T01:07:33;100925.56;;;24.63;36.49
70916;BME280;58557;50.982;-3.222;2023-06-14T01:10:01;100925.60;;;24.35;36.47
70916;BME280;58557;50.982;-3.222;2023-06-14T01:12:21;100924.53;;;24.24;36.47
70916;BME280;58557;50.982;-3.222;2023-06-14T01:14:41;100920.69;;;24.14;36.86
70916;BME280;58557;50.982;-3.222;2023-06-14T01:17:08;100922.08;;;24.32;36.50
70916;BME280;58557;50.982;-3.222;2023-06-14T01:19:33;100918.26;;;23.86;37.23
70916;BME280;58557;50.982;-3.222;2023-06-14T01:21:57;100915.57;;;23.99;36.81
70916;BME280;58557;50.982;-3.222;2023-06-14T01:24:22;100915.95;;;24.64;35.87
70916;BME280;58557;50.982;-3.222;2023-06-14T01:26:48;100915.85;;;24.03;36.71
70916;BME280;58557;50.982;-3.222;2023-06-14T01:29:14;100916.72;;;24.16;36.47
70916;BME280;58557;50.982;-3.222;2023-06-14T01:31:38;100915.79;;;23.99;36.69
70916;BME280;58557;50.982;-3.222;2023-06-14T01:34:04;100914.02;;;23.86;36.56
70916;BME280;58557;50.982;-3.222;2023-06-14T01:36:29;100910.96;;;24.96;35.61
70916;BME280;58557;50.982;-3.222;2023-06-14T01:38:54;100908.80;;;23.91;36.41
70916;BME280;58557;50.982;-3.222;2023-06-14T01:41:21;100909.59;;;24.58;36.45
70916;BME280;58557;50.982;-3.222;2023-06-14T01:43:45;100908.82;;;24.30;36.73
70916;BME280;58557;50.982;-3.222;2023-06-14T01:46:11;100908.38;;;23.83;36.39
70916;BME280;58557;50.982;-3.222;2023-06-14T01:48:36;100904.55;;;23.79;36.73
70916;BME280;58557;50.982;-3.222;2023-06-14T01:51:01;100906.13;;;22.95;38.77
70916;BME280;58557;50.982;-3.222;2023-06-14T01:53:26;100910.05;;;23.38;38.16
70916;BME280;58557;50.982;-3.222;2023-06-14T01:55:52;100913.29;;;23.88;37.18
70916;BME280;58557;50.982;-3.222;2023-06-14T01:58:17;100913.25;;;22.63;38.72
70916;BME280;58557;50.982;-3.222;2023-06-14T02:00:42;100911.27;;;22.67;38.31
70916;BME280;58557;50.982;-3.222;2023-06-14T02:03:07;100912.64;;;22.34;39.80
70916;BME280;58557;50.982;-3.222;2023-06-14T02:05:32;100909.92;;;22.84;38.77
70916;BME280;58557;50.982;-3.222;2023-06-14T02:07:58;100904.66;;;22.91;38.28
70916;BME280;58557;50.982;-3.222;2023-06-14T02:10:24;100910.40;;;23.68;37.36
70916;BME280;58557;50.982;-3.222;2023-06-14T02:12:49;100911.91;;;23.42;37.84
70916;BME280;58557;50.982;-3.222;2023-06-14T02:15:15;100909.34;;;22.97;38.06
70916;BME280;58557;50.982;-3.222;2023-06-14T02:17:40;100911.48;;;23.54;36.85
70916;BME280;58557;50.982;-3.222;2023-06-14T02:20:06;100908.29;;;23.08;37.66
70916;BME280;58557;50.982;-3.222;2023-06-14T02:22:30;100909.90;;;23.25;36.87
70916;BME280;58557;50.982;-3.222;2023-06-14T02:24:56;100910.33;;;23.69;36.58
70916;BME280;58557;50.982;-3.222;2023-06-14T02:27:22;100910.24;;;23.85;36.18
70916;BME280;58557;50.982;-3.222;2023-06-14T02:29:47;100907.04;;;23.50;36.47
70916;BME280;58557;50.982;-3.222;2023-06-14T02:32:13;100905.28;;;22.78;37.34
70916;BME280;58557;50.982;-3.222;2023-06-14T02:34:38;100905.35;;;23.12;37.26
70916;BME280;58557;50.982;-3.222;2023-06-14T02:37:04;100912.74;;;22.93;37.46
70916;BME280;58557;50.982;-3.222;2023-06-14T02:39:29;100905.72;;;23.24;37.17
70916;BME280;58557;50.982;-3.222;2023-06-14T02:41:54;100908.45;;;22.75;36.96
70916;BME280;58557;50.982;-3.222;2023-06-14T02:44:23;100910.28;;;22.43;38.36
70916;BME280;58557;50.982;-3.222;2023-06-14T02:46:45;100906.58;;;22.22;38.04
70916;BME280;58557;50.982;-3.222;2023-06-14T02:49:11;100907.45;;;22.65;37.57
70916;BME280;58557;50.982;-3.222;2023-06-14T02:51:36;100909.95;;;21.97;39.05
70916;BME280;58557;50.982;-3.222;2023-06-14T02:54:02;100908.79;;;21.68;38.61
70916;BME280;58557;50.982;-3.222;2023-06-14T02:56:27;100909.60;;;21.18;39.74
70916;BME280;58557;50.982;-3.222;2023-06-14T02:58:52;100915.44;;;21.61;39.52
70916;BME280;58557;50.982;-3.222;2023-06-14T03:01:18;100916.00;;;21.42;39.13
70916;BME280;58557;50.982;-3.222;2023-06-14T03:03:43;100912.87;;;21.03;39.62
70916;BME280;58557;50.982;-3.222;2023-06-14T03:06:08;100912.77;;;22.79;37.65
70916;BME280;58557;50.982;-3.222;2023-06-14T03:08:34;100913.78;;;22.69;37.83
70916;BME280;58557;50.982;-3.222;2023-06-14T03:10:59;100918.32;;;21.99;38.94
70916;BME280;58557;50.982;-3.222;2023-06-14T03:13:24;100916.81;;;21.99;39.52
70916;BME280;58557;50.982;-3.222;2023-06-14T03:15:50;100915.04;;;22.11;39.52
70916;BME280;58557;50.982;-3.222;2023-06-14T03:18:15;100914.35;;;21.59;39.80
70916;BME280;58557;50.982;-3.222;2023-06-14T03:20:41;100914.31;;;21.68;39.82
70916;BME280;58557;50.982;-3.222;2023-06-14T03:23:06;100916.50;;;21.82;39.26
70916;BME280;58557;50.982;-3.222;2023-06-14T03:25:32;100920.84;;;21.62;39.18
70916;BME280;58557;50.982;-3.222;2023-06-14T03:27:57;100919.48;;;22.28;38.53
70916;BME280;58557;50.982;-3.222;2023-06-14T03:30:23;100919.74;;;22.47;38.44
70916;BME280;58557;50.982;-3.222;2023-06-14T03:32:48;100923.34;;;22.47;38.86
70916;BME280;58557;50.982;-3.222;2023-06-14T03:35:13;100923.98;;;22.76;38.54
70916;BME280;58557;50.982;-3.222;2023-06-14T03:37:38;100921.68;;;22.05;39.90
70916;BME280;58557;50.982;-3.222;2023-06-14T03:40:04;100922.54;;;21.79;39.49
70916;BME280;58557;50.982;-3.222;2023-06-14T03:42:29;100925.77;;;22.15;39.09
70916;BME280;58557;50.982;-3.222;2023-06-14T03:44:54;100924.85;;;21.63;39.43
70916;BME280;58557;50.982;-3.222;2023-06-14T03:47:20;100927.45;;;21.19;39.83
70916;BME280;58557;50.982;-3.222;2023-06-14T03:49:45;100933.89;;;21.87;39.01
70916;BME280;58557;50.982;-3.222;2023-06-14T03:52:10;100935.98;;;22.34;39.07
70916;BME280;58557;50.982;-3.222;2023-06-14T03:54:35;100936.35;;;21.47;39.78
70916;BME280;58557;50.982;-3.222;2023-06-14T03:57:01;100934.11;;;20.81;41.12
70916;BME280;58557;50.982;-3.222;2023-06-14T03:59:26;100932.07;;;21.26;39.84
70916;BME280;58557;50.982;-3.222;2023-06-14T04:01:52;100932.28;;;20.64;41.39
70916;BME280;58557;50.982;-3.222;2023-06-14T04:04:17;100931.84;;;20.88;41.26
70916;BME280;58557;50.982;-3.222;2023-06-14T04:06:42;100933.10;;;21.18;41.53
70916;BME280;58557;50.982;-3.222;2023-06-14T04:09:07;100932.64;;;20.82;41.66
70916;BME280;58557;50.982;-3.222;2023-06-14T04:11:33;100936.35;;;19.54;44.17
70916;BME280;58557;50.982;-3.222;2023-06-14T04:13:59;100939.38;;;19.45;44.84
70916;BME280;58557;50.982;-3.222;2023-06-14T04:16:24;100938.05;;;19.95;44.03
70916;BME280;58557;50.982;-3.222;2023-06-14T04:18:49;100940.95;;;20.41;42.48
70916;BME280;58557;50.982;-3.222;2023-06-14T04:21:14;100942.32;;;21.41;41.84
70916;BME280;58557;50.982;-3.222;2023-06-14T04:23:40;100940.49;;;21.76;40.97
70916;BME280;58557;50.982;-3.222;2023-06-14T04:26:05;100941.40;;;21.28;41.25
70916;BME280;58557;50.982;-3.222;2023-06-14T04:28:31;100939.93;;;21.11;41.80
70916;BME280;58557;50.982;-3.222;2023-06-14T04:30:57;100941.68;;;21.19;41.09
70916;BME280;58557;50.982;-3.222;2023-06-14T04:33:22;100941.25;;;21.20;40.54
70916;BME280;58557;50.982;-3.222;2023-06-14T04:35:47;100942.29;;;21.32;40.70
70916;BME280;58557;50.982;-3.222;2023-06-14T04:38:13;100944.34;;;21.40;40.73
70916;BME280;58557;50.982;-3.222;2023-06-14T04:40:39;100947.94;;;21.70;39.80
70916;BME280;58557;50.982;-3.222;2023-06-14T04:43:05;100952.74;;;22.19;38.98
70916;BME280;58557;50.982;-3.222;2023-06-14T04:45:31;100951.30;;;21.57;39.66
70916;BME280;58557;50.982;-3.222;2023-06-14T04:47:56;100953.09;;;21.76;40.40
70916;BME280;58557;50.982;-3.222;2023-06-14T04:50:22;100957.15;;;21.89;40.00
70916;BME280;58557;50.982;-3.222;2023-06-14T04:52:48;100958.94;;;21.88;39.21
70916;BME280;58557;50.982;-3.222;2023-06-14T04:55:13;100956.86;;;21.67;39.72
70916;BME280;58557;50.982;-3.222;2023-06-14T04:57:38;100963.08;;;21.93;38.86
70916;BME280;58557;50.982;-3.222;2023-06-14T05:00:05;100962.48;;;21.75;39.49
70916;BME280;58557;50.982;-3.222;2023-06-14T05:02:29;100968.94;;;22.06;38.73
70916;BME280;58557;50.982;-3.222;2023-06-14T05:04:54;100970.88;;;22.29;38.73
70916;BME280;58557;50.982;-3.222;2023-06-14T05:07:20;100973.19;;;21.94;38.09
70916;BME280;58557;50.982;-3.222;2023-06-14T05:09:45;100976.16;;;22.03;38.56
70916;BME280;58557;50.982;-3.222;2023-06-14T05:12:10;100972.65;;;22.05;38.32
70916;BME280;58557;50.982;-3.222;2023-06-14T05:14:36;100971.07;;;21.95;38.50
70916;BME280;58557;50.982;-3.222;2023-06-14T05:17:01;100973.11;;;23.34;36.01
70916;BME280;58557;50.982;-3.222;2023-06-14T05:19:26;100973.59;;;22.14;38.70
70916;BME280;58557;50.982;-3.222;2023-06-14T05:21:52;100967.95;;;21.31;39.90
70916;BME280;58557;50.982;-3.222;2023-06-14T05:24:18;100969.05;;;21.41;39.85
70916;BME280;58557;50.982;-3.222;2023-06-14T05:26:43;100969.88;;;21.92;37.47
70916;BME280;58557;50.982;-3.222;2023-06-14T05:29:09;100969.99;;;21.10;39.98
70916;BME280;58557;50.982;-3.222;2023-06-14T05:31:35;100975.33;;;20.97;41.02
70916;BME280;58557;50.982;-3.222;2023-06-14T05:34:00;100974.95;;;20.86;40.50
70916;BME280;58557;50.982;-3.222;2023-06-14T05:36:26;100975.68;;;20.40;40.93
70916;BME280;58557;50.982;-3.222;2023-06-14T05:38:52;100976.36;;;20.07;41.15
70916;BME280;58557;50.982;-3.222;2023-06-14T05:41:18;100974.04;;;20.13;40.92
70916;BME280;58557;50.982;-3.222;2023-06-14T05:43:43;100975.23;;;19.85;41.77
70916;BME280;58557;50.982;-3.222;2023-06-14T05:46:09;100976.57;;;19.34;43.43
70916;BME280;58557;50.982;-3.222;2023-06-14T05:48:34;100979.27;;;19.62;42.57
70916;BME280;58557;50.982;-3.222;2023-06-14T05:50:59;100977.77;;;19.99;42.09
70916;BME280;58557;50.982;-3.222;2023-06-14T05:53:24;100976.58;;;19.86;42.39
70916;BME280;58557;50.982;-3.222;2023-06-14T05:55:50;100981.90;;;18.79;44.35
70916;BME280;58557;50.982;-3.222;2023-06-14T05:58:15;100978.45;;;19.38;43.79
70916;BME280;58557;50.982;-3.222;2023-06-14T06:00:41;100983.86;;;19.40;42.12
70916;BME280;58557;50.982;-3.222;2023-06-14T06:03:07;100986.76;;;20.31;40.50
70916;BME280;58557;50.982;-3.222;2023-06-14T06:05:33;100985.59;;;20.35;38.31
70916;BME280;58557;50.982;-3.222;2023-06-14T06:07:58;100983.48;;;20.79;37.18
70916;BME280;58557;50.982;-3.222;2023-06-14T06:10:24;100981.97;;;20.43;38.80
70916;BME280;58557;50.982;-3.222;2023-06-14T06:12:50;100983.44;;;21.53;37.30
70916;BME280;58557;50.982;-3.222;2023-06-14T06:15:16;100985.80;;;21.43;36.85
70916;BME280;58557;50.982;-3.222;2023-06-14T06:17:40;100992.60;;;21.31;36.05
70916;BME280;58557;50.982;-3.222;2023-06-14T06:20:06;100996.78;;;21.61;35.80
70916;BME280;58557;50.982;-3.222;2023-06-14T06:22:31;100993.36;;;21.29;35.80
70916;BME280;58557;50.982;-3.222;2023-06-14T06:24:56;100996.22;;;21.53;37.21
70916;BME280;58557;50.982;-3.222;2023-06-14T06:27:21;100997.49;;;20.97;37.33
70916;BME280;58557;50.982;-3.222;2023-06-14T06:29:47;100999.49;;;21.29;37.19
70916;BME280;58557;50.982;-3.222;2023-06-14T06:32:12;100997.14;;;21.44;36.90
70916;BME280;58557;50.982;-3.222;2023-06-14T06:34:38;101001.70;;;21.36;37.38
70916;BME280;58557;50.982;-3.222;2023-06-14T06:37:04;101003.24;;;21.08;36.18
70916;BME280;58557;50.982;-3.222;2023-06-14T06:39:29;101007.23;;;21.37;36.91
70916;BME280;58557;50.982;-3.222;2023-06-14T06:41:54;101013.26;;;20.83;38.90
70916;BME280;58557;50.982;-3.222;2023-06-14T06:44:19;101014.24;;;21.05;37.11
70916;BME280;58557;50.982;-3.222;2023-06-14T06:46:44;101012.28;;;20.73;37.35
70916;BME280;58557;50.982;-3.222;2023-06-14T06:49:10;101015.87;;;19.79;38.37
70916;BME280;58557;50.982;-3.222;2023-06-14T06:51:35;101015.96;;;20.14;36.89
70916;BME280;58557;50.982;-3.222;2023-06-14T06:54:00;101013.53;;;19.43;37.54
70916;BME280;58557;50.982;-3.222;2023-06-14T06:56:26;101008.68;;;19.37;38.01
70916;BME280;58557;50.982;-3.222;2023-06-14T06:58:51;101011.83;;;19.18;38.79
70916;BME280;58557;50.982;-3.222;2023-06-14T07:01:16;101009.58;;;18.76;39.67
70916;BME280;58557;50.982;-3.222;2023-06-14T07:03:41;101013.66;;;19.00;39.94
70916;BME280;58557;50.982;-3.222;2023-06-14T07:06:06;101010.88;;;18.77;40.28
70916;BME280;58557;50.982;-3.222;2023-06-14T07:08:31;101009.53;;;19.41;39.01
70916;BME280;58557;50.982;-3.222;2023-06-14T07:10:57;101005.87;;;19.81;37.84
70916;BME280;58557;50.982;-3.222;2023-06-14T07:13:22;101009.72;;;20.09;36.44
70916;BME280;58557;50.982;-3.222;2023-06-14T07:15:48;101011.24;;;19.84;36.87
70916;BME280;58557;50.982;-3.222;2023-06-14T07:18:14;101020.52;;;19.72;37.04
70916;BME280;58557;50.982;-3.222;2023-06-14T07:20:39;101014.83;;;20.38;36.46
70916;BME280;58557;50.982;-3.222;2023-06-14T07:23:05;101016.24;;;21.09;34.08
70916;BME280;58557;50.982;-3.222;2023-06-14T07:25:30;101015.44;;;22.91;31.25
70916;BME280;58557;50.982;-3.222;2023-06-14T07:27:55;101012.96;;;22.54;28.56
70916;BME280;58557;50.982;-3.222;2023-06-14T07:30:21;101021.89;;;23.19;28.80
70916;BME280;58557;50.982;-3.222;2023-06-14T07:32:46;101027.06;;;23.70;27.32
70916;BME280;58557;50.982;-3.222;2023-06-14T07:35:11;101026.00;;;24.88;25.97
70916;BME280;58557;50.982;-3.222;2023-06-14T07:37:37;101027.31;;;24.68;25.32
70916;BME280;58557;50.982;-3.222;2023-06-14T07:40:02;101033.26;;;24.12;25.96
70916;BME280;58557;50.982;-3.222;2023-06-14T07:42:28;101033.58;;;25.54;24.94
70916;BME280;58557;50.982;-3.222;2023-06-14T07:44:53;101034.21;;;24.93;25.32
70916;BME280;58557;50.982;-3.222;2023-06-14T07:47:19;101034.94;;;26.37;24.78
70916;BME280;58557;50.982;-3.222;2023-06-14T07:49:44;101033.07;;;26.53;24.71
70916;BME280;58557;50.982;-3.222;2023-06-14T07:52:09;101033.40;;;25.54;25.59
70916;BME280;58557;50.982;-3.222;2023-06-14T07:54:35;101030.13;;;27.12;25.19
70916;BME280;58557;50.982;-3.222;2023-06-14T07:57:00;101030.23;;;27.37;24.47
70916;BME280;58557;50.982;-3.222;2023-06-14T07:59:26;101031.07;;;27.14;23.97
70916;BME280;58557;50.982;-3.222;2023-06-14T08:01:51;101027.43;;;26.08;24.78
70916;BME280;58557;50.982;-3.222;2023-06-14T08:04:17;101028.85;;;26.05;24.97
70916;BME280;58557;50.982;-3.222;2023-06-14T08:06:42;101026.52;;;25.58;25.22
70916;BME280;58557;50.982;-3.222;2023-06-14T08:09:07;101022.38;;;24.83;26.36
70916;BME280;58557;50.982;-3.222;2023-06-14T08:11:33;101022.58;;;25.40;24.92
70916;BME280;58557;50.982;-3.222;2023-06-14T08:13:59;101028.03;;;24.01;26.52
70916;BME280;58557;50.982;-3.222;2023-06-14T08:16:24;101027.97;;;23.37;27.69
70916;BME280;58557;50.982;-3.222;2023-06-14T08:18:49;101026.81;;;23.66;28.07
70916;BME280;58557;50.982;-3.222;2023-06-14T08:21:15;101022.80;;;24.24;26.65
70916;BME280;58557;50.982;-3.222;2023-06-14T08:23:40;101026.43;;;25.09;26.14
70916;BME280;58557;50.982;-3.222;2023-06-14T08:26:06;101024.76;;;26.07;26.05
70916;BME280;58557;50.982;-3.222;2023-06-14T08:28:31;101026.93;;;26.84;24.01
70916;BME280;58557;50.982;-3.222;2023-06-14T08:30:56;101023.46;;;26.79;23.71
70916;BME280;58557;50.982;-3.222;2023-06-14T08:33:22;101022.89;;;26.68;23.08
70916;BME280;58557;50.982;-3.222;2023-06-14T08:35:48;101021.29;;;25.74;23.67
70916;BME280;58557;50.982;-3.222;2023-06-14T08:38:13;101019.92;;;25.30;24.15
70916;BME280;58557;50.982;-3.222;2023-06-14T08:40:38;101023.91;;;23.65;25.95
70916;BME280;58557;50.982;-3.222;2023-06-14T08:43:04;101019.54;;;24.54;26.88
70916;BME280;58557;50.982;-3.222;2023-06-14T08:45:29;101024.18;;;23.86;26.82
70916;BME280;58557;50.982;-3.222;2023-06-14T08:47:55;101024.27;;;24.73;26.28
70916;BME280;58557;50.982;-3.222;2023-06-14T08:50:21;101026.06;;;24.41;22.10
70916;BME280;58557;50.982;-3.222;2023-06-14T08:52:48;101026.80;;;25.65;20.58
70916;BME280;58557;50.982;-3.222;2023-06-14T08:55:12;101021.46;;;26.02;18.31
70916;BME280;58557;50.982;-3.222;2023-06-14T08:57:39;101028.70;;;24.91;19.99
70916;BME280;58557;50.982;-3.222;2023-06-14T09:00:04;101028.04;;;25.46;19.46
70916;BME280;58557;50.982;-3.222;2023-06-14T09:02:28;101028.81;;;24.75;20.22
70916;BME280;58557;50.982;-3.222;2023-06-14T09:04:54;101032.51;;;26.02;20.51
70916;BME280;58557;50.982;-3.222;2023-06-14T09:07:19;101037.65;;;26.56;20.19
70916;BME280;58557;50.982;-3.222;2023-06-14T09:09:45;101037.79;;;26.92;18.74
70916;BME280;58557;50.982;-3.222;2023-06-14T09:12:11;101040.90;;;27.36;18.09
70916;BME280;58557;50.982;-3.222;2023-06-14T09:14:36;101039.23;;;27.23;18.95
70916;BME280;58557;50.982;-3.222;2023-06-14T09:17:02;101042.94;;;27.64;18.29
70916;BME280;58557;50.982;-3.222;2023-06-14T09:19:28;101042.39;;;27.89;19.66
70916;BME280;58557;50.982;-3.222;2023-06-14T09:21:52;101046.24;;;26.61;21.12
70916;BME280;58557;50.982;-3.222;2023-06-14T09:24:18;101048.49;;;26.88;19.66
70916;BME280;58557;50.982;-3.222;2023-06-14T09:26:44;101050.87;;;26.65;19.50
70916;BME280;58557;50.982;-3.222;2023-06-14T09:29:09;101058.02;;;27.86;19.10
70916;BME280;58557;50.982;-3.222;2023-06-14T09:31:35;101056.82;;;28.03;20.21
70916;BME280;58557;50.982;-3.222;2023-06-14T09:34:02;101052.08;;;27.38;21.20
70916;BME280;58557;50.982;-3.222;2023-06-14T09:36:26;101051.61;;;27.52;20.84
70916;BME280;58557;50.982;-3.222;2023-06-14T09:38:52;101044.91;;;25.84;21.14
70916;BME280;58557;50.982;-3.222;2023-06-14T09:41:16;101046.13;;;26.63;20.66
70916;BME280;58557;50.982;-3.222;2023-06-14T09:43:42;101046.11;;;27.19;19.72
70916;BME280;58557;50.982;-3.222;2023-06-14T09:46:08;101047.85;;;27.39;20.58
70916;BME280;58557;50.982;-3.222;2023-06-14T09:48:33;101049.66;;;26.33;21.13
70916;BME280;58557;50.982;-3.222;2023-06-14T09:50:58;101056.48;;;25.68;22.22
70916;BME280;58557;50.982;-3.222;2023-06-14T09:53:24;101056.29;;;27.00;21.06
70916;BME280;58557;50.982;-3.222;2023-06-14T09:55:49;101052.93;;;25.92;21.68
70916;BME280;58557;50.982;-3.222;2023-06-14T09:58:16;101054.94;;;27.02;21.11
70916;BME280;58557;50.982;-3.222;2023-06-14T10:00:40;101049.73;;;26.86;20.77
70916;BME280;58557;50.982;-3.222;2023-06-14T10:03:12;101053.56;;;25.86;23.01
70916;BME280;58557;50.982;-3.222;2023-06-14T10:05:31;101051.01;;;25.18;22.39
70916;BME280;58557;50.982;-3.222;2023-06-14T10:08:03;101053.30;;;26.66;21.54
70916;BME280;58557;50.982;-3.222;2023-06-14T10:10:22;101057.57;;;27.49;21.72
70916;BME280;58557;50.982;-3.222;2023-06-14T10:12:47;101060.87;;;28.00;20.21
70916;BME280;58557;50.982;-3.222;2023-06-14T10:15:19;101057.43;;;27.33;20.18
70916;BME280;58557;50.982;-3.222;2023-06-14T10:17:43;101060.12;;;27.69;20.05
70916;BME280;58557;50.982;-3.222;2023-06-14T10:20:16;101062.40;;;27.80;19.98
70916;BME280;58557;50.982;-3.222;2023-06-14T10:22:33;101063.81;;;28.13;19.88
70916;BME280;58557;50.982;-3.222;2023-06-14T10:24:56;101057.70;;;28.66;20.95
70916;BME280;58557;50.982;-3.222;2023-06-14T10:27:20;101059.27;;;28.87;20.03
70916;BME280;58557;50.982;-3.222;2023-06-14T10:30:02;101055.28;;;27.24;20.70
70916;BME280;58557;50.982;-3.222;2023-06-14T10:32:11;101058.02;;;27.80;19.85
70916;BME280;58557;50.982;-3.222;2023-06-14T10:34:38;101052.55;;;27.52;18.09
70916;BME280;58557;50.982;-3.222;2023-06-14T10:37:04;101053.69;;;28.04;19.28
70916;BME280;58557;50.982;-3.222;2023-06-14T10:39:28;101054.82;;;28.63;19.80
70916;BME280;58557;50.982;-3.222;2023-06-14T10:41:55;101054.73;;;28.21;20.66
70916;BME280;58557;50.982;-3.222;2023-06-14T10:44:31;101057.22;;;27.60;19.51
70916;BME280;58557;50.982;-3.222;2023-06-14T10:46:46;101057.59;;;28.79;18.88
70916;BME280;58557;50.982;-3.222;2023-06-14T10:49:09;101052.39;;;27.10;17.98
70916;BME280;58557;50.982;-3.222;2023-06-14T10:51:39;101046.44;;;26.90;15.77
70916;BME280;58557;50.982;-3.222;2023-06-14T10:54:00;101047.26;;;27.29;15.95
70916;BME280;58557;50.982;-3.222;2023-06-14T10:56:28;101048.71;;;26.47;16.28
70916;BME280;58557;50.982;-3.222;2023-06-14T10:58:52;101049.56;;;27.44;16.09
70916;BME280;58557;50.982;-3.222;2023-06-14T11:01:27;101047.81;;;26.88;16.19
70916;BME280;58557;50.982;-3.222;2023-06-14T11:03:51;101043.79;;;27.24;16.80
70916;BME280;58557;50.982;-3.222;2023-06-14T11:06:14;101040.37;;;26.71;18.45
70916;BME280;58557;50.982;-3.222;2023-06-14T11:08:45;101040.46;;;27.81;17.16
70916;BME280;58557;50.982;-3.222;2023-06-14T11:11:00;101036.95;;;27.99;15.96
70916;BME280;58557;50.982;-3.222;2023-06-14T11:13:26;101028.36;;;27.07;17.11
70916;BME280;58557;50.982;-3.222;2023-06-14T11:15:50;101022.50;;;26.43;17.60
70916;BME280;58557;50.982;-3.222;2023-06-14T11:18:16;101029.82;;;28.18;16.55
70916;BME280;58557;50.982;-3.222;2023-06-14T11:20:41;101023.73;;;27.48;16.78
70916;BME280;58557;50.982;-3.222;2023-06-14T11:23:07;101020.41;;;28.47;16.65
70916;BME280;58557;50.982;-3.222;2023-06-14T11:25:32;101019.02;;;27.94;17.15
70916;BME280;58557;50.982;-3.222;2023-06-14T11:27:58;101012.79;;;29.34;15.35
70916;BME280;58557;50.982;-3.222;2023-06-14T11:30:24;101015.02;;;28.53;14.82
70916;BME280;58557;50.982;-3.222;2023-06-14T11:32:49;101012.82;;;29.22;14.54
70916;BME280;58557;50.982;-3.222;2023-06-14T11:35:15;101011.80;;;30.11;14.77
70916;BME280;58557;50.982;-3.222;2023-06-14T11:37:40;101008.19;;;29.13;15.52
70916;BME280;58557;50.982;-3.222;2023-06-14T11:40:07;101009.72;;;29.42;17.50
70916;BME280;58557;50.982;-3.222;2023-06-14T11:42:31;101005.48;;;28.75;16.99
70916;BME280;58557;50.982;-3.222;2023-06-14T11:44:56;101003.71;;;29.31;16.49
70916;BME280;58557;50.982;-3.222;2023-06-14T11:47:22;101002.46;;;28.82;17.82
70916;BME280;58557;50.982;-3.222;2023-06-14T11:49:48;101000.60;;;27.95;17.39
70916;BME280;58557;50.982;-3.222;2023-06-14T11:52:13;100999.64;;;27.94;16.61
70916;BME280;58557;50.982;-3.222;2023-06-14T11:54:38;101000.58;;;28.03;18.45
70916;BME280;58557;50.982;-3.222;2023-06-14T11:57:04;101002.03;;;28.47;17.43
70916;BME280;58557;50.982;-3.222;2023-06-14T11:59:29;101003.66;;;28.45;17.67
70916;BME280;58557;50.982;-3.222;2023-06-14T12:01:54;100998.44;;;28.90;16.54
70916;BME280;58557;50.982;-3.222;2023-06-14T12:04:23;100992.68;;;31.06;15.96
70916;BME280;58557;50.982;-3.222;2023-06-14T12:06:45;100997.58;;;30.62;14.80
70916;BME280;58557;50.982;-3.222;2023-06-14T12:09:11;100996.07;;;30.17;15.04
70916;BME280;58557;50.982;-3.222;2023-06-14T12:11:36;100996.20;;;29.10;16.30
70916;BME280;58557;50.982;-3.222;2023-06-14T12:14:03;100994.40;;;28.29;16.68
70916;BME280;58557;50.982;-3.222;2023-06-14T12:16:31;100996.41;;;29.21;16.35
70916;BME280;58557;50.982;-3.222;2023-06-14T12:18:53;100996.81;;;29.63;16.00
70916;BME280;58557;50.982;-3.222;2023-06-14T12:21:23;100995.85;;;29.69;15.48
70916;BME280;58557;50.982;-3.222;2023-06-14T12:23:44;100989.53;;;30.05;15.29
70916;BME280;58557;50.982;-3.222;2023-06-14T12:26:09;100984.78;;;30.86;16.72
70916;BME280;58557;50.982;-3.222;2023-06-14T12:28:34;100983.97;;;30.61;17.98
70916;BME280;58557;50.982;-3.222;2023-06-14T12:31:00;100985.37;;;29.42;18.04